Time,TemperatureF,DewpointF,PressureIn,WindDirection,WindDirectionDegrees,WindSpeedMPH,WindSpeedGustMPH,Humidity,HourlyPrecipIn,Conditions,Clouds,dailyrainin,SolarRadiationWatts/m^2,SoftwareType,DateUTC
2013-03-05 00:01:00,16.0,11.0,-100.00,SSE,165,1.0,3.0,81,0.00,,,0.00,0.000000,,2013-03-05 05:01:00,
2013-03-05 00:22:00,16.0,11.0,-100.00,SSE,165,1.0,3.0,81,0.00,,,0.00,0.000000,,2013-03-05 05:22:00,
2013-03-05 00:32:00,16.0,11.0,-100.00,SSE,165,1.0,3.0,81,0.00,,,0.00,0.000000,,2013-03-05 05:32:00,
2013-03-05 00:42:00,16.0,11.0,-100.00,SSE,165,1.0,3.0,81,0.00,,,0.00,0.000000,,2013-03-05 05:42:00,
2013-03-05 00:52:00,16.0,11.0,-100.00,SSE,165,1.0,3.0,81,0.00,,,0.00,0.000000,,2013-03-05 05:52:00,
2013-03-05 01:01:00,15.0,10.0,-100.00,SE,127,0.0,2.0,81,0.00,,,0.00,0.000000,,2013-03-05 06:01:00,
2013-03-05 01:22:00,15.0,10.0,-100.00,SE,127,0.0,2.0,81,0.00,,,0.00,0.000000,,2013-03-05 06:22:00,
2013-03-05 01:32:00,15.0,10.0,-100.00,SE,127,0.0,2.0,81,0.00,,,0.00,0.000000,,2013-03-05 06:32:00,
2013-03-05 01:42:00,15.0,10.0,-100.00,SE,127,0.0,2.0,81,0.00,,,0.00,0.000000,,2013-03-05 06:42:00,
2013-03-05 01:52:00,15.0,10.0,-100.00,SE,127,0.0,2.0,81,0.00,,,0.00,0.000000,,2013-03-05 06:52:00,
2013-03-05 02:01:00,14.0,9.0,-100.00,ESE,103,0.0,2.0,81,0.00,,,0.00,0.000000,,2013-03-05 07:01:00,
2013-03-05 02:22:00,14.0,9.0,-100.00,ESE,103,0.0,2.0,81,0.00,,,0.00,0.000000,,2013-03-05 07:22:00,
2013-03-05 02:32:00,14.0,9.0,-100.00,ESE,103,0.0,2.0,81,0.00,,,0.00,0.000000,,2013-03-05 07:32:00,
2013-03-05 02:42:00,14.0,9.0,-100.00,ESE,103,0.0,2.0,81,0.00,,,0.00,0.000000,,2013-03-05 07:42:00,
2013-03-05 02:52:00,14.0,9.0,-100.00,ESE,103,0.0,2.0,81,0.00,,,0.00,0.000000,,2013-03-05 07:52:00,
2013-03-05 04:01:00,12.0,8.0,-100.00,SSE,162,0.0,2.0,82,-99.99,,,0.00,0.000000,,2013-03-05 09:01:00,
2013-03-05 04:32:00,12.0,8.0,-100.00,SSE,162,0.0,2.0,82,-99.99,,,0.00,0.000000,,2013-03-05 09:32:00,
2013-03-05 04:43:00,12.0,8.0,-100.00,SSE,162,0.0,2.0,82,-99.99,,,0.00,0.000000,,2013-03-05 09:43:00,
2013-03-05 04:52:00,12.0,8.0,-100.00,SSE,162,0.0,2.0,82,-99.99,,,0.00,0.000000,,2013-03-05 09:52:00,
2013-03-05 05:01:00,17.0,12.0,-100.00,ESE,109,2.0,6.0,82,0.00,,,0.00,0.000000,,2013-03-05 10:01:00,
2013-03-05 05:22:00,17.0,12.0,-100.00,ESE,109,2.0,6.0,82,0.00,,,0.00,0.000000,,2013-03-05 10:22:00,
2013-03-05 05:32:00,17.0,12.0,-100.00,ESE,109,2.0,6.0,82,0.00,,,0.00,0.000000,,2013-03-05 10:32:00,
2013-03-05 05:42:00,17.0,12.0,-100.00,ESE,109,2.0,6.0,82,0.00,,,0.00,0.000000,,2013-03-05 10:42:00,
2013-03-05 05:52:00,17.0,12.0,-100.00,ESE,109,2.0,6.0,82,0.00,,,0.00,0.000000,,2013-03-05 10:52:00,
2013-03-05 06:01:00,19.0,14.0,-100.00,ESE,111,3.0,6.0,82,0.00,,,0.00,0.000000,,2013-03-05 11:01:00,
2013-03-05 06:22:00,19.0,14.0,-100.00,ESE,111,3.0,6.0,82,0.00,,,0.00,0.000000,,2013-03-05 11:22:00,
2013-03-05 06:32:00,19.0,14.0,-100.00,ESE,111,3.0,6.0,82,0.00,,,0.00,0.000000,,2013-03-05 11:32:00,
2013-03-05 06:42:00,19.0,14.0,-100.00,ESE,111,3.0,6.0,82,0.00,,,0.00,0.000000,,2013-03-05 11:42:00,
2013-03-05 06:52:00,19.0,14.0,-100.00,ESE,111,3.0,6.0,82,0.00,,,0.00,0.000000,,2013-03-05 11:52:00,
2013-03-05 07:01:00,21.0,16.0,-100.00,East,84,4.0,14.0,82,0.00,,,0.00,0.000000,,2013-03-05 12:01:00,
2013-03-05 07:32:00,21.0,16.0,-100.00,East,84,4.0,14.0,82,0.00,,,0.00,0.000000,,2013-03-05 12:32:00,
2013-03-05 07:42:00,21.0,16.0,-100.00,East,84,4.0,14.0,82,0.00,,,0.00,0.000000,,2013-03-05 12:42:00,
2013-03-05 07:53:00,21.0,16.0,-100.00,East,84,4.0,14.0,82,0.00,,,0.00,0.000000,,2013-03-05 12:53:00,
2013-03-05 08:01:00,24.0,19.0,-100.00,East,93,3.0,14.0,82,0.00,,,0.00,58.000000,,2013-03-05 13:01:00,
2013-03-05 08:32:00,24.0,19.0,-100.00,East,93,3.0,14.0,82,0.00,,,0.00,58.000000,,2013-03-05 13:32:00,
2013-03-05 08:42:00,24.0,19.0,-100.00,East,93,3.0,14.0,82,0.00,,,0.00,58.000000,,2013-03-05 13:42:00,
2013-03-05 08:52:00,24.0,19.0,-100.00,East,93,3.0,14.0,82,0.00,,,0.00,58.000000,,2013-03-05 13:52:00,
2013-03-05 09:01:00,25.0,20.0,-100.00,ESE,111,6.0,14.0,82,0.00,,,0.00,217.000000,,2013-03-05 14:01:00,
2013-03-05 09:32:00,25.0,20.0,-100.00,ESE,111,6.0,14.0,82,0.00,,,0.00,217.000000,,2013-03-05 14:32:00,
2013-03-05 09:42:00,25.0,20.0,-100.00,ESE,111,6.0,14.0,82,0.00,,,0.00,217.000000,,2013-03-05 14:42:00,
2013-03-05 09:52:00,25.0,20.0,-100.00,ESE,111,6.0,14.0,82,0.00,,,0.00,217.000000,,2013-03-05 14:52:00,
2013-03-05 10:01:00,28.0,23.0,-100.00,East,97,7.0,17.0,82,0.00,,,0.00,312.000000,,2013-03-05 15:01:00,
2013-03-05 10:32:00,28.0,23.0,-100.00,East,97,7.0,17.0,82,0.00,,,0.00,312.000000,,2013-03-05 15:32:00,
2013-03-05 10:42:00,28.0,23.0,-100.00,East,97,7.0,17.0,82,0.00,,,0.00,312.000000,,2013-03-05 15:42:00,
2013-03-05 10:52:00,28.0,23.0,-100.00,East,97,7.0,17.0,82,0.00,,,0.00,312.000000,,2013-03-05 15:52:00,
2013-03-05 11:01:00,30.0,25.0,-100.00,East,92,8.0,17.0,81,0.00,,,0.00,572.000000,,2013-03-05 16:01:00,
2013-03-05 11:32:00,30.0,25.0,-100.00,East,92,8.0,17.0,81,0.00,,,0.00,572.000000,,2013-03-05 16:32:00,
2013-03-05 11:42:00,30.0,25.0,-100.00,East,92,8.0,17.0,81,0.00,,,0.00,572.000000,,2013-03-05 16:42:00,
2013-03-05 11:52:00,30.0,25.0,-100.00,East,92,8.0,17.0,81,0.00,,,0.00,572.000000,,2013-03-05 16:52:00,
2013-03-05 12:01:00,33.0,28.0,-100.00,East,84,6.0,14.0,80,0.00,,,0.00,674.000000,,2013-03-05 17:01:00,
2013-03-05 12:32:00,33.0,28.0,-100.00,East,84,6.0,14.0,80,0.00,,,0.00,674.000000,,2013-03-05 17:32:00,
2013-03-05 12:42:00,33.0,28.0,-100.00,East,84,6.0,14.0,80,0.00,,,0.00,674.000000,,2013-03-05 17:42:00,
2013-03-05 12:53:00,33.0,28.0,-100.00,East,84,6.0,14.0,80,0.00,,,0.00,674.000000,,2013-03-05 17:53:00,
2013-03-05 13:01:00,34.0,28.0,-100.00,East,91,6.0,17.0,79,0.00,,,0.00,709.000000,,2013-03-05 18:01:00,
2013-03-05 13:32:00,34.0,28.0,-100.00,East,91,6.0,17.0,79,0.00,,,0.00,709.000000,,2013-03-05 18:32:00,
2013-03-05 13:42:00,34.0,28.0,-100.00,East,91,6.0,17.0,79,0.00,,,0.00,709.000000,,2013-03-05 18:42:00,
2013-03-05 13:53:00,34.0,28.0,-100.00,East,91,6.0,17.0,79,0.00,,,0.00,709.000000,,2013-03-05 18:53:00,
2013-03-05 14:01:00,36.0,30.0,-100.00,East,92,5.0,19.0,79,0.00,,,0.00,683.000000,,2013-03-05 19:01:00,
2013-03-05 14:32:00,36.0,30.0,-100.00,East,92,5.0,19.0,79,0.00,,,0.00,683.000000,,2013-03-05 19:32:00,
2013-03-05 14:42:00,36.0,30.0,-100.00,East,92,5.0,19.0,79,0.00,,,0.00,683.000000,,2013-03-05 19:42:00,
2013-03-05 14:52:00,36.0,30.0,-100.00,East,92,5.0,19.0,79,0.00,,,0.00,683.000000,,2013-03-05 19:52:00,
2013-03-05 15:01:00,36.0,30.0,-100.00,ENE,67,7.0,17.0,78,0.00,,,0.00,628.000000,,2013-03-05 20:01:00,
2013-03-05 15:22:00,36.0,30.0,-100.00,ENE,67,7.0,17.0,78,0.00,,,0.00,628.000000,,2013-03-05 20:22:00,
2013-03-05 15:32:00,36.0,30.0,-100.00,ENE,67,7.0,17.0,78,0.00,,,0.00,628.000000,,2013-03-05 20:32:00,
2013-03-05 15:42:00,36.0,30.0,-100.00,ENE,67,7.0,17.0,78,0.00,,,0.00,628.000000,,2013-03-05 20:42:00,
2013-03-05 15:52:00,36.0,30.0,-100.00,ENE,67,7.0,17.0,78,0.00,,,0.00,628.000000,,2013-03-05 20:52:00,
2013-03-05 16:01:00,35.0,29.0,-100.00,ENE,63,9.0,16.0,78,0.00,,,0.00,509.000000,,2013-03-05 21:01:00,
2013-03-05 16:32:00,35.0,29.0,-100.00,ENE,63,9.0,16.0,78,0.00,,,0.00,509.000000,,2013-03-05 21:32:00,
2013-03-05 16:42:00,35.0,29.0,-100.00,ENE,63,9.0,16.0,78,0.00,,,0.00,509.000000,,2013-03-05 21:42:00,
2013-03-05 16:52:00,35.0,29.0,-100.00,ENE,63,9.0,16.0,78,0.00,,,0.00,509.000000,,2013-03-05 21:52:00,
2013-03-05 17:01:00,32.0,26.0,-100.00,ENE,78,8.0,21.0,78,0.00,,,0.00,302.000000,,2013-03-05 22:01:00,
2013-03-05 17:32:00,32.0,26.0,-100.00,ENE,78,8.0,21.0,78,0.00,,,0.00,302.000000,,2013-03-05 22:32:00,
2013-03-05 17:42:00,32.0,26.0,-100.00,ENE,78,8.0,21.0,78,0.00,,,0.00,302.000000,,2013-03-05 22:42:00,
2013-03-05 17:52:00,32.0,26.0,-100.00,ENE,78,8.0,21.0,78,0.00,,,0.00,302.000000,,2013-03-05 22:52:00,
2013-03-05 18:01:00,28.0,22.0,-100.00,NE,54,7.0,16.0,78,0.00,,,0.00,79.000000,,2013-03-05 23:01:00,
2013-03-05 18:32:00,28.0,22.0,-100.00,NE,54,7.0,16.0,78,0.00,,,0.00,79.000000,,2013-03-05 23:32:00,
2013-03-05 18:42:00,28.0,22.0,-100.00,NE,54,7.0,16.0,78,0.00,,,0.00,79.000000,,2013-03-05 23:42:00,
2013-03-05 18:53:00,28.0,22.0,-100.00,NE,54,7.0,16.0,78,0.00,,,0.00,79.000000,,2013-03-05 23:53:00,
2013-03-05 19:01:00,27.0,21.0,-100.00,NE,51,8.0,16.0,78,0.00,,,0.00,8.000000,,2013-03-06 00:01:00,
2013-03-05 19:22:00,27.0,21.0,-100.00,NE,51,8.0,16.0,78,0.00,,,0.00,8.000000,,2013-03-06 00:22:00,
2013-03-05 19:32:00,27.0,21.0,-100.00,NE,51,8.0,16.0,78,0.00,,,0.00,8.000000,,2013-03-06 00:32:00,
2013-03-05 19:42:00,27.0,21.0,-100.00,NE,51,8.0,16.0,78,0.00,,,0.00,8.000000,,2013-03-06 00:42:00,
2013-03-05 19:52:00,27.0,21.0,-100.00,NE,51,8.0,16.0,78,0.00,,,0.00,8.000000,,2013-03-06 00:52:00,
2013-03-05 20:01:00,25.0,19.0,-100.00,NE,54,8.0,20.0,79,0.00,,,0.00,0.000000,,2013-03-06 01:01:00,
2013-03-05 20:32:00,25.0,19.0,-100.00,NE,54,8.0,20.0,79,0.00,,,0.00,0.000000,,2013-03-06 01:32:00,
2013-03-05 20:42:00,25.0,19.0,-100.00,NE,54,8.0,20.0,79,0.00,,,0.00,0.000000,,2013-03-06 01:42:00,
2013-03-05 20:52:00,25.0,19.0,-100.00,NE,54,8.0,20.0,79,0.00,,,0.00,0.000000,,2013-03-06 01:52:00,
2013-03-05 21:01:00,25.0,19.0,-100.00,NE,39,6.0,19.0,79,0.00,,,0.00,0.000000,,2013-03-06 02:01:00,
2013-03-05 21:22:00,25.0,19.0,-100.00,NE,39,6.0,19.0,79,0.00,,,0.00,0.000000,,2013-03-06 02:22:00,
2013-03-05 21:32:00,25.0,19.0,-100.00,NE,39,6.0,19.0,79,0.00,,,0.00,0.000000,,2013-03-06 02:32:00,
2013-03-05 21:42:00,25.0,19.0,-100.00,NE,39,6.0,19.0,79,0.00,,,0.00,0.000000,,2013-03-06 02:42:00,
2013-03-05 21:52:00,25.0,19.0,-100.00,NE,39,6.0,19.0,79,0.00,,,0.00,0.000000,,2013-03-06 02:52:00,
2013-03-05 22:01:00,24.0,18.0,-100.00,NE,36,5.0,18.0,79,0.00,,,0.00,0.000000,,2013-03-06 03:01:00,
2013-03-05 22:22:00,24.0,18.0,-100.00,NE,36,5.0,18.0,79,0.00,,,0.00,0.000000,,2013-03-06 03:22:00,
2013-03-05 22:32:00,24.0,18.0,-100.00,NE,36,5.0,18.0,79,0.00,,,0.00,0.000000,,2013-03-06 03:32:00,
2013-03-05 22:42:00,24.0,18.0,-100.00,NE,36,5.0,18.0,79,0.00,,,0.00,0.000000,,2013-03-06 03:42:00,
2013-03-05 22:53:00,24.0,18.0,-100.00,NE,36,5.0,18.0,79,0.00,,,0.00,0.000000,,2013-03-06 03:53:00,
2013-03-05 23:01:00,24.0,19.0,-100.00,NNE,25,6.0,14.0,80,0.00,,,0.00,0.000000,,2013-03-06 04:01:00,
2013-03-05 23:32:00,24.0,19.0,-100.00,NNE,25,6.0,14.0,80,0.00,,,0.00,0.000000,,2013-03-06 04:32:00,
2013-03-05 23:42:00,24.0,19.0,-100.00,NNE,25,6.0,14.0,80,0.00,,,0.00,0.000000,,2013-03-06 04:42:00,
2013-03-05 23:52:00,24.0,19.0,-100.00,NNE,25,6.0,14.0,80,0.00,,,0.00,0.000000,,2013-03-06 04:52:00,